Startpagina
METAR-TAF:

METAR-TAF

Vliegvelden :

Luxemburg, Luxemburg

Aéroport de Luxembourg

breedte: 49-37N, lengte: 006-13E, hoogte: 376 m

Actueel weer

Dit bericht is 18 minuten geleden gemaakt, om 10:50 UTC
Wind 8 kt uit het oosten, variërend tussen het noordoosten en het zuidoosten
Temperatuur 23°C
Vochtigheid 50%
Druk 1021 hPa
Zicht 10 km of meer
Weinig wolken op 4800 ft

METAR: ELLX 261050Z 08008KT 040V130 9999 FEW048 23/12 Q1021 NOSIG

Tijdstip: 13:08 (11:08 UTC)

Verwachting

Dit bericht is 6 uur en het 8 minuten geleden gemaakt, om 05:00 UTC
Verwachting geldig van 26 om 06 UTC tot 27 om 12 UTC
Wind 9 kt uit het oostnoordoosten
Zicht 10 km of meer
geen wolken onder 1500 m en geen cumulonimbus
Wijzigt naar
van 27 om 04 UTC tot 27 om 06 UTC
Wind 7 kt uit het zuidoosten

TAF: ELLX 260500Z 2606/2712 07009KT CAVOK BECMG 2704/2706 13007KT

Waarnemingen en weersverwachtingen van meer dan 4000 vliegvelden (METAR en TAF).

De beschikbare stations zijn de gele en rode punten op de kaart.

Ga met uw muis naar het station om de naam te zien.

Klik dan om waarnemingen en weersverwachtingen te zien.

kaart wijzigen: klik op de groene knoppen met een zwart kruis om in te zoomen, op de groene knop met een streepje om uit te zoomen of op de groene pijlen voor aangrenzende kaarten.


METAR-TAF: